Time;durP1;ratioP1;P1;durP2;ratioP2;P2;SDS_P1;SDS_P2;PMS_P1;PMS_P2;Temp;Humidity;BMP_temperature;BMP_pressure;BME280_temperature;BME280_humidity;BME280_pressure;Samples;Min_cycle;Max_cycle;Signal;HPM_P1;HPM_P2
2021/04/13 00:01:23;;;;;;;64.58;35.00;;;;;;;8.30;73.25;100514.36;1781039;80;22195;-74
2021/04/13 00:04:07;;;;;;;85.12;41.48;;;;;;;8.32;73.08;100520.44;1780932;80;21190;-74
2021/04/13 00:06:51;;;;;;;72.03;41.05;;;;;;;8.34;72.96;100523.91;1781041;79;21602;-75
2021/04/13 00:09:24;;;;;;;77.67;41.15;;;;;;;8.32;72.43;100524.38;1780948;80;21712;-75
2021/04/13 00:11:56;;;;;;;71.92;42.23;;;;;;;8.31;72.57;100522.67;1781031;79;21597;-74
2021/04/13 00:14:29;;;;;;;80.80;43.63;;;;;;;8.32;72.47;100524.38;1780619;80;22107;-75
2021/04/13 00:16:59;;;;;;;72.22;40.88;;;;;;;8.28;72.11;100526.22;1779711;78;21217;-74
2021/04/13 00:19:41;;;;;;;58.83;34.85;;;;;;;8.29;72.51;100529.70;1732358;81;21114;-74
2021/04/13 00:22:10;;;;;;;55.58;32.45;;;;;;;8.27;72.00;100531.49;1723713;82;21182;-73
2021/04/13 00:24:38;;;;;;;62.27;33.60;;;;;;;8.24;72.56;100531.57;1749385;82;21179;-74
2021/04/13 00:27:06;;;;;;;62.95;36.63;;;;;;;8.21;72.38;100529.84;1770232;80;21167;-74
2021/04/13 00:29:35;;;;;;;67.40;38.60;;;;;;;8.22;72.60;100528.11;1780410;79;21155;-74
2021/04/13 00:35:08;;;;;;;68.35;39.03;;;;;;;8.28;72.67;100533.20;1843881;76;28750;-76
2021/04/13 00:37:30;;;;;;;63.73;37.28;;;;;;;8.23;72.38;100535.07;1813375;79;21649;-77
2021/04/13 00:40:24;;;;;;;57.05;34.00;;;;;;;8.24;72.70;100536.81;1815905;79;21421;-77
2021/04/13 00:42:53;;;;;;;50.45;29.50;;;;;;;8.25;72.24;100537.22;1815428;79;21245;-77
2021/04/13 00:45:29;;;;;;;54.85;31.97;;;;;;;8.26;73.04;100535.00;1815887;79;21127;-77
2021/04/13 00:47:56;;;;;;;61.63;30.23;;;;;;;8.27;73.19;100534.97;1815776;79;21769;-76
2021/04/13 00:50:41;;;;;;;68.55;36.08;;;;;;;8.28;73.67;100530.58;1815963;78;21191;-75
2021/04/13 00:53:13;;;;;;;64.55;37.48;;;;;;;8.29;73.67;100534.95;1815823;78;21373;-75
2021/04/13 00:55:55;;;;;;;61.37;36.83;;;;;;;8.27;72.38;100528.87;1815898;79;21171;-76
2021/04/13 00:58:30;;;;;;;62.08;37.03;;;;;;;8.25;72.43;100534.14;1783857;79;21202;-75
2021/04/13 01:01:15;;;;;;;57.15;34.33;;;;;;;8.22;72.34;100528.11;1783643;79;21187;-75
2021/04/13 01:03:47;;;;;;;67.75;36.63;;;;;;;8.22;72.22;100528.11;1747770;80;21629;-78
2021/04/13 01:06:26;;;;;;;47.80;28.80;;;;;;;8.20;72.19;100528.98;1783705;80;21194;-77
2021/04/13 01:09:10;;;;;;;57.80;31.37;;;;;;;8.19;72.26;100524.66;1783436;80;21632;-74
2021/04/13 01:11:47;;;;;;;58.42;34.23;;;;;;;8.19;73.01;100522.03;1783517;80;21166;-75
2021/04/13 01:14:15;;;;;;;62.73;35.45;;;;;;;8.19;72.76;100524.66;1749169;80;21556;-74
2021/04/13 01:16:52;;;;;;;61.77;36.55;;;;;;;8.20;73.12;100526.37;1783557;80;21238;-74
2021/04/13 01:19:49;;;;;;;68.07;37.03;;;;;;;8.18;71.98;100522.91;1783586;80;21589;-75
2021/04/13 01:22:56;;;;;;;65.12;35.40;;;;;;;8.18;72.24;100525.53;1783582;79;21150;-73
2021/04/13 01:25:27;;;;;;;62.10;32.55;;;;;;;8.19;71.65;100526.42;1740614;81;21178;-75
2021/04/13 01:28:00;;;;;;;60.35;33.58;;;;;;;8.21;72.40;100521.97;1752535;81;21265;-73
2021/04/13 01:30:47;;;;;;;59.53;35.23;;;;;;;8.22;73.04;100517.61;1752577;81;21178;-74
2021/04/13 01:36:31;;;;;;;51.18;30.37;;;;;;;8.32;72.11;100513.88;1805783;79;28187;-77
2021/04/13 01:39:15;;;;;;;61.02;35.80;;;;;;;8.29;72.21;100521.84;1776781;80;21151;-76
2021/04/13 01:44:39;;;;;;;77.22;38.75;;;;;;;8.27;72.09;100522.31;1781443;80;20984;-75
2021/04/13 01:47:09;;;;;;;66.80;37.85;;;;;;;8.24;71.78;100521.08;1781655;80;21066;-75
2021/04/13 01:49:41;;;;;;;64.15;38.65;;;;;;;8.19;71.81;100508.91;1780200;80;21012;-74
2021/04/13 01:52:14;;;;;;;60.43;34.45;;;;;;;8.19;71.94;100511.53;1779816;80;21613;-74
2021/04/13 01:54:42;;;;;;;54.00;33.75;;;;;;;8.15;72.11;100506.38;1779363;80;21359;-74
2021/04/13 01:57:25;;;;;;;58.75;34.92;;;;;;;8.15;72.12;100507.23;1754262;80;21189;-75
2021/04/13 01:59:56;;;;;;;57.78;33.58;;;;;;;8.15;72.39;100505.92;1745467;82;21192;-75
2021/04/13 02:02:28;;;;;;;64.15;33.88;;;;;;;8.15;72.33;100509.86;1745971;82;21169;-75
2021/04/13 02:05:03;;;;;;;56.40;33.23;;;;;;;8.16;72.79;100509.41;1719033;82;21150;-74
2021/04/13 02:07:58;;;;;;;62.90;35.20;;;;;;;8.16;72.74;100514.20;1719117;82;21378;-74
2021/04/13 02:10:38;;;;;;;57.83;35.08;;;;;;;8.18;72.95;100517.66;1745283;82;21194;-75
2021/04/13 02:13:16;;;;;;;64.67;36.80;;;;;;;8.17;73.15;100515.95;1745595;82;21217;-75
2021/04/13 02:16:08;;;;;;;49.10;28.57;;;;;;;8.16;72.66;100501.08;1745480;81;21186;-74
2021/04/13 02:18:45;;;;;;;50.58;28.55;;;;;;;8.18;73.59;100503.23;1745696;82;21326;-76
2021/04/13 02:21:38;;;;;;;60.30;32.75;;;;;;;8.19;73.91;100493.63;1745702;82;21366;-74
2021/04/13 02:24:16;;;;;;;59.15;33.60;;;;;;;8.22;73.82;100495.31;1745606;82;21590;-75
2021/04/13 02:26:51;;;;;;;54.63;31.52;;;;;;;8.22;73.25;100485.67;1745577;82;21166;-77
2021/04/13 02:29:22;;;;;;;60.38;33.60;;;;;;;8.24;73.85;100486.97;1745496;82;21197;-77
2021/04/13 02:31:55;;;;;;;54.55;33.60;;;;;;;8.28;73.84;100488.59;1745391;82;21162;-77
2021/04/13 02:34:28;;;;;;;62.23;36.60;;;;;;;8.30;73.80;100491.60;1745704;81;21366;-77
2021/04/13 02:36:59;;;;;;;58.30;34.43;;;;;;;8.31;73.69;100492.48;1750898;81;21265;-77
2021/04/13 02:39:30;;;;;;;50.60;31.35;;;;;;;8.30;73.11;100492.06;1750962;81;21425;-76
2021/04/13 02:42:08;;;;;;;56.63;33.42;;;;;;;8.31;73.66;100489.41;1750969;81;21158;-76
2021/04/13 02:44:36;;;;;;;58.20;31.20;;;;;;;8.31;73.85;100485.47;1747370;81;21221;-75
2021/04/13 02:47:08;;;;;;;52.73;31.12;;;;;;;8.32;74.37;100488.95;1750753;81;21422;-76
2021/04/13 02:49:39;;;;;;;62.38;34.18;;;;;;;8.30;73.96;100488.13;1750535;81;21101;-77
2021/04/13 02:52:20;;;;;;;63.23;34.88;;;;;;;8.26;74.03;100490.39;1750601;81;21518;-77
2021/04/13 02:54:55;;;;;;;64.72;36.40;;;;;;;8.25;74.62;100487.36;1750443;81;21196;-75
2021/04/13 02:57:38;;;;;;;70.80;36.70;;;;;;;8.26;74.28;100487.77;1750727;80;21181;-75
2021/04/13 03:00:10;;;;;;;52.10;32.00;;;;;;;8.25;73.97;100480.80;1750503;81;21848;-73
2021/04/13 03:02:49;;;;;;;42.73;26.35;;;;;;;8.25;73.33;100481.66;1750555;81;21197;-74
2021/04/13 03:05:25;;;;;;;48.75;28.35;;;;;;;8.26;73.39;100485.14;1748321;81;21647;-74
2021/04/13 03:07:57;;;;;;;53.48;31.35;;;;;;;8.27;74.16;100481.64;1750663;81;21178;-75
2021/04/13 03:10:29;;;;;;;66.70;33.45;;;;;;;8.29;75.27;100487.72;1750870;81;21601;-74
2021/04/13 03:13:02;;;;;;;62.48;35.23;;;;;;;8.26;74.86;100489.08;1750644;81;21209;-74
2021/04/13 03:15:30;;;;;;;55.60;32.95;;;;;;;8.25;74.23;100492.16;1751360;81;22221;-72
2021/04/13 03:18:02;;;;;;;54.45;34.80;;;;;;;8.23;74.03;100491.33;1752656;81;21704;-74
2021/04/13 03:20:37;;;;;;;55.60;33.35;;;;;;;8.19;73.86;100495.79;1752871;81;21229;-75
2021/04/13 03:23:28;;;;;;;58.50;34.78;;;;;;;8.17;74.13;100492.33;1745385;81;21283;-75
2021/04/13 03:26:47;;;;;;;67.78;36.42;;;;;;;8.16;75.11;100493.21;1741463;81;21195;-74
2021/04/13 03:29:21;;;;;;;60.83;35.38;;;;;;;8.16;74.72;100498.46;1748351;82;21190;-75
2021/04/13 03:31:49;;;;;;;62.23;32.98;;;;;;;8.20;74.46;100497.50;1748844;82;21171;-75
2021/04/13 03:34:18;;;;;;;59.75;36.42;;;;;;;8.20;75.02;100496.19;1701978;82;21143;-73
2021/04/13 03:36:47;;;;;;;63.55;37.23;;;;;;;8.23;75.19;100489.16;1746352;82;21191;-74
2021/04/13 03:39:34;;;;;;;65.62;37.10;;;;;;;8.24;74.67;100490.90;1746199;82;21540;-75
2021/04/13 03:42:04;;;;;;;71.28;37.00;;;;;;;8.24;74.49;100484.34;1745976;82;21183;-75
2021/04/13 03:44:34;;;;;;;64.55;34.58;;;;;;;8.25;74.34;100493.47;1746050;82;21207;-75
2021/04/13 03:47:04;;;;;;;54.58;33.15;;;;;;;8.23;73.95;100491.78;1746230;82;21144;-74
2021/04/13 03:49:35;;;;;;;68.30;38.38;;;;;;;8.23;74.38;100491.78;1721625;82;21204;-75
2021/04/13 03:52:11;;;;;;;45.63;28.90;;;;;;;8.23;74.28;100492.63;1746085;82;21206;-76
2021/04/13 03:54:39;;;;;;;52.03;31.25;;;;;;;8.22;74.22;100493.55;1746002;82;21183;-75
2021/04/13 03:57:08;;;;;;;69.90;39.30;;;;;;;8.24;74.76;100497.46;1745988;82;21175;-74
2021/04/13 03:59:43;;;;;;;77.47;42.05;;;;;;;8.24;74.89;100498.77;1746054;82;21587;-74
2021/04/13 04:02:12;;;;;;;80.07;43.30;;;;;;;8.23;74.59;100500.97;1746064;81;21194;-75
2021/04/13 04:04:42;;;;;;;82.22;44.67;;;;;;;8.24;74.33;100501.39;1745911;82;22398;-74
2021/04/13 04:07:32;;;;;;;83.87;45.45;;;;;;;8.21;74.91;100506.23;1746150;82;21163;-75
2021/04/13 04:09:59;;;;;;;86.70;46.95;;;;;;;8.18;74.57;100504.54;1745991;82;21648;-75
2021/04/13 04:12:28;;;;;;;63.75;34.10;;;;;;;8.19;75.03;100506.28;1747826;82;21601;-76
2021/04/13 04:15:10;;;;;;;79.27;43.83;;;;;;;8.18;74.84;100504.54;1747623;82;21279;-78
2021/04/13 04:17:48;;;;;;;85.32;49.30;;;;;;;8.17;74.89;100513.32;1747542;82;21364;-77
2021/04/13 04:20:16;;;;;;;91.45;48.02;;;;;;;8.17;74.94;100509.39;1747498;82;21162;-77
2021/04/13 04:22:53;;;;;;;77.30;44.03;;;;;;;8.17;75.27;100508.08;1747672;82;21201;-76
2021/04/13 04:25:45;;;;;;;90.72;45.63;;;;;;;8.16;75.41;100505.02;1747508;82;21252;-77
2021/04/13 04:28:18;;;;;;;77.62;42.50;;;;;;;8.17;75.22;100508.08;1739211;81;21187;-79
2021/04/13 04:30:46;;;;;;;65.92;37.70;;;;;;;8.17;74.66;100511.16;1747465;82;21433;-79
2021/04/13 04:33:36;;;;;;;73.72;37.00;;;;;;;8.17;74.70;100517.26;1747538;80;21675;-78
2021/04/13 04:36:31;;;;;;;70.55;39.55;;;;;;;8.17;74.66;100517.26;1746368;81;21172;-80
2021/04/13 04:39:28;;;;;;;64.50;36.03;;;;;;;8.20;74.67;100519.80;1745004;82;21202;-78
2021/04/13 04:42:00;;;;;;;65.87;38.55;;;;;;;8.20;74.69;100515.87;1742073;82;21186;-77
2021/04/13 04:44:29;;;;;;;79.32;42.05;;;;;;;8.22;74.52;100518.92;1732397;82;21381;-78
2021/04/13 04:47:00;;;;;;;79.37;43.55;;;;;;;8.25;74.80;100518.85;1734816;82;21146;-80
2021/04/13 04:49:40;;;;;;;79.35;42.73;;;;;;;8.27;75.19;100515.75;1700266;84;21225;-77
2021/04/13 04:52:08;;;;;;;73.97;39.70;;;;;;;8.29;75.22;100511.34;1700410;84;21138;-74
2021/04/13 04:54:35;;;;;;;75.15;41.33;;;;;;;8.29;74.65;100510.88;1700320;82;22213;-78
2021/04/13 04:58:30;;;;;;;69.60;39.83;;;;;;;8.40;74.32;100512.00;1794136;79;28700;-78
2021/04/13 05:00:58;;;;;;;79.42;42.35;;;;;;;8.36;74.41;100505.05;1779601;80;21162;-81
2021/04/13 05:03:27;;;;;;;77.67;45.20;;;;;;;8.39;74.96;100507.60;1785512;80;22269;-80
2021/04/13 05:05:56;;;;;;;71.62;41.05;;;;;;;8.40;74.67;100509.38;1785482;80;21706;-79
2021/04/13 05:08:25;;;;;;;58.40;34.33;;;;;;;8.43;74.31;100509.30;1785213;80;21179;-80
2021/04/13 05:10:53;;;;;;;50.20;29.67;;;;;;;8.45;74.47;100508.82;1777456;80;21410;-79
2021/04/13 05:13:22;;;;;;;77.75;39.67;;;;;;;8.44;74.91;100501.83;1781067;80;21187;-81
2021/04/13 05:15:50;;;;;;;66.10;38.33;;;;;;;8.44;74.62;100501.83;1773044;80;21325;-79
2021/04/13 05:18:18;;;;;;;65.03;38.05;;;;;;;8.44;74.29;100503.14;1767079;80;21195;-78
2021/04/13 05:20:46;;;;;;;59.27;35.10;;;;;;;8.38;74.34;100501.95;1766742;80;21168;-78
2021/04/13 05:23:15;;;;;;;66.90;37.90;;;;;;;8.35;74.38;100504.20;1766948;80;21559;-78
2021/04/13 05:25:43;;;;;;;65.32;37.00;;;;;;;8.32;74.52;100508.64;1758147;80;21722;-78
2021/04/13 05:28:12;;;;;;;61.92;36.85;;;;;;;8.25;75.02;100504.42;1715593;83;21221;-78
2021/04/13 05:30:40;;;;;;;73.65;39.10;;;;;;;8.22;75.28;100507.12;1723861;82;21101;-80
2021/04/13 05:33:08;;;;;;;57.65;35.95;;;;;;;8.20;75.72;100501.44;1719079;82;21678;-78
2021/04/13 05:35:36;;;;;;;62.38;36.23;;;;;;;8.20;76.08;100501.44;1720512;82;21642;-78
2021/04/13 05:38:08;;;;;;;59.35;35.30;;;;;;;8.21;76.49;100497.05;1736671;82;21138;-79
2021/04/13 05:40:36;;;;;;;60.33;35.08;;;;;;;8.25;76.16;100501.80;1714523;82;21347;-78
2021/04/13 05:43:04;;;;;;;66.00;34.80;;;;;;;8.26;76.36;100494.33;1729596;81;21172;-79
2021/04/13 05:45:34;;;;;;;62.35;35.63;;;;;;;8.28;76.34;100496.47;1716821;83;21227;-81
2021/04/13 05:48:03;;;;;;;60.60;36.55;;;;;;;8.30;76.34;100498.62;1720903;83;21139;-79
2021/04/13 05:50:37;;;;;;;50.20;30.25;;;;;;;8.32;76.28;100499.00;1738480;82;21645;-79
2021/04/13 05:53:08;;;;;;;63.73;36.63;;;;;;;8.33;76.54;100499.88;1717584;81;21213;-78
2021/04/13 05:55:37;;;;;;;60.30;31.57;;;;;;;8.36;76.56;100491.94;1696123;82;21178;-79
2021/04/13 05:58:13;;;;;;;64.27;34.00;;;;;;;8.38;77.01;100491.45;1677997;83;21201;-79
2021/04/13 06:00:41;;;;;;;64.82;31.42;;;;;;;8.40;76.62;100493.63;1685411;85;21201;-79
2021/04/13 06:03:11;;;;;;;61.40;33.75;;;;;;;8.43;76.74;100488.76;1681365;84;21198;-80
2021/04/13 06:05:39;;;;;;;67.60;35.55;;;;;;;8.47;77.17;100483.41;1699303;83;21378;-78
2021/04/13 06:08:12;;;;;;;67.85;34.73;;;;;;;8.51;77.02;100487.70;1693615;83;21205;-79
2021/04/13 06:10:41;;;;;;;69.50;35.52;;;;;;;8.56;77.47;100483.66;1696676;82;21198;-80
2021/04/13 06:13:09;;;;;;;59.63;34.58;;;;;;;8.62;77.01;100488.73;1696015;83;21559;-79
2021/04/13 06:15:37;;;;;;;55.45;32.33;;;;;;;8.66;77.17;100493.48;1679903;84;21234;-78
2021/04/13 06:18:05;;;;;;;63.15;34.70;;;;;;;8.70;77.42;100489.44;1701209;83;21373;-79
2021/04/13 06:20:34;;;;;;;69.85;35.10;;;;;;;8.74;76.98;100491.52;1708101;83;21194;-80
2021/04/13 06:23:03;;;;;;;52.08;28.32;;;;;;;8.79;77.49;100493.61;1691528;83;22109;-79
2021/04/13 06:25:32;;;;;;;70.85;38.10;;;;;;;8.85;77.49;100490.82;1678006;84;21208;-78
2021/04/13 06:28:00;;;;;;;65.17;36.80;;;;;;;8.91;77.33;100494.63;1697853;82;21224;-79
2021/04/13 06:30:28;;;;;;;83.17;41.85;;;;;;;8.94;77.02;100490.59;1691711;82;21221;-79
2021/04/13 06:33:00;;;;;;;67.00;35.58;;;;;;;8.98;76.80;100484.37;1685467;85;21215;-78
2021/04/13 06:35:29;;;;;;;72.65;40.03;;;;;;;9.01;76.84;100489.55;1670608;84;21172;-78
2021/04/13 06:38:01;;;;;;;69.53;34.20;;;;;;;9.07;76.85;100485.06;1656468;85;21208;-79
2021/04/13 06:40:56;;;;;;;80.85;35.75;;;;;;;9.11;77.47;100491.94;1679848;85;21261;-79
2021/04/13 06:43:46;;;;;;;66.80;33.53;;;;;;;9.12;77.09;100497.63;1670419;84;21377;-79
2021/04/13 06:46:50;;;;;;;71.03;35.83;;;;;;;9.07;77.40;100499.51;1705516;83;21664;-79
2021/04/13 06:49:24;;;;;;;62.73;33.33;;;;;;;9.03;77.65;100506.13;1685139;85;22287;-79
2021/04/13 06:52:10;;;;;;;69.77;38.15;;;;;;;9.00;78.07;100502.28;1681876;84;21261;-78
2021/04/13 06:54:49;;;;;;;66.35;35.65;;;;;;;9.06;77.90;100499.08;1705682;83;21637;-78
2021/04/13 06:57:58;;;;;;;66.05;34.50;;;;;;;9.10;78.19;100495.48;1680475;83;21807;-79
2021/04/13 07:00:37;;;;;;;59.50;31.25;;;;;;;9.11;77.94;100499.81;1650568;85;21234;-80
2021/04/13 07:03:32;;;;;;;63.13;33.00;;;;;;;9.14;77.76;100491.88;1733115;82;21235;-80
2021/04/13 07:06:21;;;;;;;63.75;35.45;;;;;;;9.17;77.98;100497.05;1722159;81;21181;-79
2021/04/13 07:08:55;;;;;;;56.20;31.00;;;;;;;9.21;77.68;100497.39;1724678;82;21170;-79
2021/04/13 07:11:37;;;;;;;64.17;34.30;;;;;;;9.21;77.42;100489.50;1722599;82;22330;-79
2021/04/13 07:14:20;;;;;;;57.10;33.08;;;;;;;9.29;77.33;100490.61;1719654;82;21666;-79
2021/04/13 07:17:00;;;;;;;62.65;35.88;;;;;;;9.36;77.22;100494.37;1727989;82;21577;-78
2021/04/13 07:19:36;;;;;;;71.15;34.50;;;;;;;9.40;76.64;100494.69;1724443;82;21256;-79
2021/04/13 07:22:25;;;;;;;68.95;31.68;;;;;;;9.48;76.84;100496.23;1728990;82;21168;-79
2021/04/13 07:25:10;;;;;;;60.83;30.37;;;;;;;9.58;76.82;100501.68;1720411;81;22383;-79
2021/04/13 07:27:48;;;;;;;58.28;30.55;;;;;;;9.71;76.53;100491.24;1722589;81;21196;-78
2021/04/13 07:30:33;;;;;;;69.47;37.85;;;;;;;9.84;75.70;100495.23;1734811;81;21167;-80
2021/04/13 07:33:01;;;;;;;67.03;32.40;;;;;;;9.96;75.91;100493.16;1725472;82;21188;-79
2021/04/13 07:35:39;;;;;;;56.15;31.37;;;;;;;10.03;74.91;100498.66;1725125;81;21187;-79
2021/04/13 07:38:33;;;;;;;66.30;35.40;;;;;;;10.04;74.69;100495.98;1723856;82;22430;-79
2021/04/13 07:41:10;;;;;;;56.45;31.73;;;;;;;9.98;75.26;100499.25;1632322;86;21151;-80
2021/04/13 07:43:55;;;;;;;58.42;31.10;;;;;;;9.96;74.76;100503.69;1653265;85;21231;-78
2021/04/13 07:46:55;;;;;;;65.22;36.15;;;;;;;9.94;75.07;100510.75;1646748;85;21238;-80
2021/04/13 07:49:34;;;;;;;58.98;34.67;;;;;;;9.99;75.13;100508.88;1667715;85;21167;-79
2021/04/13 07:52:10;;;;;;;59.45;33.98;;;;;;;10.08;75.12;100513.88;1652932;85;21382;-79
2021/04/13 07:54:56;;;;;;;63.33;34.83;;;;;;;10.19;74.90;100506.54;1701686;82;21622;-79
2021/04/13 07:57:41;;;;;;;61.55;32.33;;;;;;;10.32;75.48;100508.83;1702373;83;21194;-78
2021/04/13 08:00:14;;;;;;;60.78;36.15;;;;;;;10.48;75.39;100500.88;1708514;82;21206;-79
2021/04/13 08:02:47;;;;;;;66.77;36.70;;;;;;;10.63;74.30;100504.36;1724739;82;21155;-79
2021/04/13 08:05:37;;;;;;;71.07;39.73;;;;;;;10.73;73.68;100499.66;1699639;83;21476;-79
2021/04/13 08:08:10;;;;;;;55.33;31.00;;;;;;;10.81;73.64;100498.97;1721670;82;21210;-79
2021/04/13 08:10:39;;;;;;;61.60;33.58;;;;;;;10.92;73.27;100499.45;1724911;82;21159;-80
2021/04/13 08:13:12;;;;;;;70.45;39.65;;;;;;;11.01;72.92;100498.30;1727490;82;21155;-79
2021/04/13 08:15:47;;;;;;;63.83;34.85;;;;;;;11.07;72.26;100490.20;1700290;82;21179;-79
2021/04/13 08:18:26;;;;;;;78.85;42.78;;;;;;;11.10;73.43;100494.04;1724664;82;21729;-80
2021/04/13 08:21:33;;;;;;;78.97;44.58;;;;;;;11.17;72.38;100492.06;1723382;82;21207;-79
2021/04/13 08:24:55;;;;;;;76.02;42.70;;;;;;;11.20;70.66;100491.95;1868162;76;28735;-79
2021/04/13 08:27:37;;;;;;;76.97;43.60;;;;;;;11.06;71.42;100497.68;1843583;76;21404;-79
2021/04/13 08:30:44;;;;;;;80.22;40.23;;;;;;;11.08;71.80;100498.50;1854961;76;21812;-79
2021/04/13 08:33:34;;;;;;;73.80;43.73;;;;;;;11.09;71.63;100494.11;1873159;76;21213;-79
2021/04/13 08:36:21;;;;;;;75.37;42.48;;;;;;;11.12;70.87;100494.86;1873233;75;21202;-78
2021/04/13 08:39:18;;;;;;;73.50;40.60;;;;;;;11.16;71.09;100486.83;1870839;76;21188;-78
2021/04/13 08:42:17;;;;;;;70.78;40.65;;;;;;;11.18;71.24;100485.02;1824766;77;21189;-79
2021/04/13 08:44:54;;;;;;;81.02;45.38;;;;;;;11.23;71.45;100479.15;1833110;76;21360;-79
2021/04/13 08:47:29;;;;;;;78.17;43.30;;;;;;;11.26;70.35;100485.63;1825513;77;21206;-77
2021/04/13 08:50:00;;;;;;;75.67;39.60;;;;;;;11.21;70.17;100488.88;1784967;77;21594;-77
2021/04/13 08:52:42;;;;;;;81.63;44.40;;;;;;;11.07;70.35;100474.85;1858791;77;21170;-76
2021/04/13 08:55:22;;;;;;;75.15;41.75;;;;;;;11.02;70.81;100480.27;1837312;76;21206;-79
2021/04/13 08:58:17;;;;;;;72.00;42.40;;;;;;;11.04;70.98;100490.31;1815182;77;22138;-77
2021/04/13 09:00:48;;;;;;;83.00;43.90;;;;;;;11.08;70.76;100484.00;1829963;77;21167;-78
2021/04/13 09:03:21;;;;;;;78.90;43.65;;;;;;;11.05;70.84;100482.80;1822468;77;21186;-79
2021/04/13 09:06:10;;;;;;;75.32;42.13;;;;;;;11.04;70.86;100481.09;1828394;77;21147;-78
2021/04/13 09:09:07;;;;;;;70.67;42.40;;;;;;;11.05;70.88;100477.52;1810894;77;21574;-79
2021/04/13 09:12:10;;;;;;;87.27;44.18;;;;;;;11.09;70.96;100481.79;1821143;78;21362;-80
2021/04/13 09:14:54;;;;;;;73.70;41.90;;;;;;;11.16;70.84;100481.56;1752664;81;21215;-81
2021/04/13 09:17:47;;;;;;;80.77;43.95;;;;;;;11.19;70.41;100473.57;1739061;82;21667;-77
2021/04/13 09:20:47;;;;;;;71.85;40.48;;;;;;;11.21;70.51;100472.60;1748587;81;22174;-77
2021/04/13 09:23:54;;;;;;;69.50;40.52;;;;;;;11.22;70.41;100471.67;1748991;81;21214;-78
2021/04/13 09:26:43;;;;;;;72.58;39.85;;;;;;;11.16;70.32;100471.02;1745873;81;21456;-78
2021/04/13 09:29:44;;;;;;;67.32;39.18;;;;;;;11.16;70.39;100468.38;1761479;80;21684;-78
2021/04/13 09:32:31;;;;;;;71.97;40.67;;;;;;;11.17;70.46;100466.17;1743326;82;21171;-78
2021/04/13 09:35:52;;;;;;;65.92;35.95;;;;;;;11.18;70.66;100471.83;1793072;79;21152;-77
2021/04/13 09:38:55;;;;;;;67.35;40.00;;;;;;;11.14;70.64;100463.19;1763499;81;21181;-77
2021/04/13 09:42:01;;;;;;;67.70;40.55;;;;;;;11.12;70.77;100465.86;1803751;79;21252;-77
2021/04/13 09:44:45;;;;;;;71.37;41.20;;;;;;;11.10;71.09;100462.41;1811045;79;21178;-77
2021/04/13 09:47:25;;;;;;;62.23;37.13;;;;;;;11.13;70.79;100459.69;1816519;78;21134;-77
2021/04/13 09:50:43;;;;;;;68.17;39.65;;;;;;;11.15;71.09;100462.25;1806884;79;21198;-77
2021/04/13 09:53:39;;;;;;;67.80;41.37;;;;;;;11.19;70.78;100460.39;1759644;81;21157;-78
2021/04/13 09:56:40;;;;;;;75.08;38.85;;;;;;;11.24;70.80;100461.08;1813023;79;21374;-78
2021/04/13 09:59:44;;;;;;;79.22;41.37;;;;;;;11.20;70.97;100462.09;1796842;79;21162;-76
2021/04/13 10:02:22;;;;;;;65.42;37.90;;;;;;;11.11;71.27;100457.56;1749659;81;21200;-77
2021/04/13 10:05:02;;;;;;;80.35;45.15;;;;;;;11.12;71.52;100460.59;1799042;78;21189;-77
2021/04/13 10:07:50;;;;;;;75.90;43.05;;;;;;;11.11;71.43;100461.52;1781771;78;21205;-77
2021/04/13 10:10:38;;;;;;;77.47;42.67;;;;;;;11.09;71.44;100460.70;1756787;81;21406;-78
2021/04/13 10:14:04;;;;;;;71.40;42.95;;;;;;;11.06;71.53;100460.78;1756500;81;21163;-77
2021/04/13 10:16:50;;;;;;;78.78;39.90;;;;;;;11.05;71.78;100453.80;1761968;79;21197;-78
2021/04/13 10:19:50;;;;;;;75.00;41.50;;;;;;;11.12;71.91;100460.59;1797218;79;21143;-77
2021/04/13 10:22:51;;;;;;;81.28;43.87;;;;;;;11.22;71.71;100452.36;1769938;79;21194;-78
2021/04/13 10:25:49;;;;;;;77.30;42.35;;;;;;;11.35;71.21;100456.30;1769204;80;21323;-77
2021/04/13 10:28:35;;;;;;;79.55;41.30;;;;;;;11.46;71.33;100448.02;1733448;82;21178;-78
2021/04/13 10:31:31;;;;;;;80.35;42.65;;;;;;;11.54;71.19;100445.48;1759514;81;21641;-78
2021/04/13 10:34:54;;;;;;;83.42;44.65;;;;;;;11.69;70.26;100448.05;1872409;76;28291;-78
2021/04/13 10:38:13;;;;;;;80.10;41.68;;;;;;;11.66;69.91;100450.78;1797510;76;21200;-79
2021/04/13 10:41:01;;;;;;;74.53;40.65;;;;;;;11.65;70.12;100445.11;1774665;80;22134;-77
2021/04/13 10:44:10;;;;;;;69.65;38.08;;;;;;;11.68;70.27;100442.35;1780593;79;21210;-77
2021/04/13 10:47:25;;;;;;;70.00;37.58;;;;;;;11.71;69.64;100450.61;1775456;80;21625;-77
2021/04/13 10:50:16;;;;;;;68.42;38.95;;;;;;;11.77;69.70;100447.75;1779892;79;21044;-76
2021/04/13 10:53:17;;;;;;;75.57;38.30;;;;;;;11.90;69.24;100449.06;1754936;78;21151;-78
2021/04/13 10:56:19;;;;;;;86.63;41.48;;;;;;;12.01;68.44;100447.78;1752773;81;21379;-78
2021/04/13 10:59:19;;;;;;;81.32;41.45;;;;;;;12.02;67.58;100442.92;1706287;81;21588;-79
2021/04/13 11:05:31;;;;;;;78.10;38.85;;;;;;;12.06;67.78;100435.30;1699476;83;22212;-78
2021/04/13 11:08:37;;;;;;;85.10;41.88;;;;;;;12.09;67.45;100425.46;1716237;83;21208;-78
2021/04/13 11:11:40;;;;;;;76.85;36.17;;;;;;;12.19;67.35;100441.80;1715582;82;22111;-77
2021/04/13 11:14:50;;;;;;;98.90;48.05;;;;;;;12.04;66.56;100432.70;1713572;83;21189;-77
2021/04/13 11:17:48;;;;;;;106.72;48.92;;;;;;;11.88;67.12;100431.10;1679600;83;21180;-77
2021/04/13 11:20:25;;;;;;;98.50;46.28;;;;;;;11.71;68.17;100429.07;1714544;81;21226;-78
2021/04/13 11:23:32;;;;;;;90.92;45.03;;;;;;;11.67;69.23;100429.23;1712547;81;21190;-79
2021/04/13 11:26:31;;;;;;;108.80;48.83;;;;;;;11.66;69.61;100431.45;1704917;83;21997;-78
2021/04/13 11:29:31;;;;;;;101.82;51.28;;;;;;;11.65;69.09;100427.11;1712904;83;21189;-80
2021/04/13 11:32:33;;;;;;;89.45;46.63;;;;;;;11.69;69.28;100432.69;1712369;81;21181;-77
2021/04/13 11:35:36;;;;;;;96.57;48.17;;;;;;;11.64;68.29;100433.28;1710537;81;21161;-77
2021/04/13 11:38:37;;;;;;;86.08;45.50;;;;;;;11.54;68.82;100433.63;1707644;81;21237;-76
2021/04/13 11:41:26;;;;;;;90.70;43.78;;;;;;;11.55;69.48;100434.51;1711588;83;22308;-75
2021/04/13 11:44:12;;;;;;;95.05;47.05;;;;;;;11.57;70.68;100430.47;1711259;83;21193;-76
2021/04/13 11:47:09;;;;;;;85.40;43.92;;;;;;;11.41;69.90;100399.41;1710623;83;21254;-77
2021/04/13 11:50:01;;;;;;;84.47;45.78;;;;;;;11.52;69.73;100420.94;1711875;83;21205;-74
2021/04/13 11:52:56;;;;;;;96.65;47.73;;;;;;;11.53;70.14;100424.00;1714944;82;21194;-77
2021/04/13 11:55:36;;;;;;;95.32;48.65;;;;;;;11.52;70.24;100423.58;1713117;81;21392;-76
2021/04/13 11:58:23;;;;;;;88.35;46.58;;;;;;;11.49;70.43;100422.38;1745579;81;21184;-76
2021/04/13 12:00:55;;;;;;;82.82;44.80;;;;;;;11.47;69.88;100421.58;1712663;83;21213;-76
2021/04/13 12:03:32;;;;;;;102.65;53.90;;;;;;;11.45;70.25;100414.17;1713033;83;21213;-77
2021/04/13 12:06:04;;;;;;;96.87;49.77;;;;;;;11.44;70.51;100415.10;1712993;83;21193;-78
2021/04/13 12:08:46;;;;;;;101.78;50.60;;;;;;;11.44;70.65;100412.93;1709487;83;21225;-77
2021/04/13 12:11:36;;;;;;;96.08;50.90;;;;;;;11.44;70.82;100407.66;1709474;83;21831;-77
2021/04/13 12:14:28;;;;;;;89.58;47.08;;;;;;;11.45;70.92;100411.53;1728119;81;21164;-77
2021/04/13 12:17:01;;;;;;;82.78;44.18;;;;;;;11.40;71.44;100408.21;1743763;81;21181;-77
2021/04/13 12:19:29;;;;;;;100.70;49.20;;;;;;;11.40;71.10;100403.41;1740028;81;21158;-78
2021/04/13 12:22:02;;;;;;;88.12;48.08;;;;;;;11.39;71.38;100406.94;1741697;81;22335;-77
2021/04/13 12:24:42;;;;;;;98.87;50.38;;;;;;;11.39;71.28;100401.23;1743203;81;21695;-77
2021/04/13 12:27:34;;;;;;;90.17;49.65;;;;;;;11.38;71.18;100401.27;1741989;81;21625;-78
2021/04/13 12:30:30;;;;;;;95.95;51.68;;;;;;;11.38;71.98;100394.69;1712710;83;21154;-78
2021/04/13 12:33:01;;;;;;;90.55;50.75;;;;;;;11.37;72.17;100397.78;1712699;82;21191;-78